Time;durP1;ratioP1;P1;durP2;ratioP2;P2;SDS_P1;SDS_P2;PMS_P1;PMS_P2;Temp;Humidity;BMP_temperature;BMP_pressure;BME280_temperature;BME280_humidity;BME280_pressure;Samples;Min_cycle;Max_cycle;Signal;HPM_P1;HPM_P2
2021/10/03 00:02:03;;;;;;;0.30;0.30;;;13.30;99.90;;;;;;5134697;27;20393;-69
2021/10/03 00:04:31;;;;;;;1.13;0.50;;;13.30;99.90;;;;;;5134310;28;20524;-69
2021/10/03 00:07:01;;;;;;;0.50;0.50;;;13.30;99.90;;;;;;5134626;28;20389;-70
2021/10/03 00:09:29;;;;;;;0.30;0.30;;;13.30;99.90;;;;;;5134491;28;20900;-69
2021/10/03 00:11:54;;;;;;;2.00;1.90;;;13.40;99.90;;;;;;5134456;28;20401;-70
2021/10/03 00:14:21;;;;;;;0.67;0.67;;;13.40;99.90;;;;;;5134096;28;20421;-69
2021/10/03 00:16:49;;;;;;;0.70;0.70;;;13.30;99.90;;;;;;5134440;28;20171;-70
2021/10/03 00:19:16;;;;;;;0.30;0.30;;;13.30;99.90;;;;;;5134248;28;20966;-69
2021/10/03 00:21:42;;;;;;;0.30;0.30;;;13.20;99.90;;;;;;5134361;28;20886;-68
2021/10/03 00:24:09;;;;;;;0.30;0.30;;;13.20;99.90;;;;;;5134051;28;20467;-68
2021/10/03 00:26:35;;;;;;;0.80;0.80;;;13.20;99.90;;;;;;5134370;28;20402;-68
2021/10/03 00:29:02;;;;;;;0.30;0.30;;;13.10;99.90;;;;;;5134429;28;20457;-68
2021/10/03 00:31:27;;;;;;;0.30;0.30;;;13.20;99.90;;;;;;5134210;28;20889;-68
2021/10/03 00:33:53;;;;;;;0.30;0.30;;;13.30;99.90;;;;;;5134019;28;20421;-68
2021/10/03 00:36:19;;;;;;;0.40;0.40;;;13.30;99.90;;;;;;5134290;28;20172;-70
2021/10/03 00:38:44;;;;;;;0.30;0.30;;;13.30;99.90;;;;;;5134274;28;20199;-70
2021/10/03 00:41:11;;;;;;;0.30;0.30;;;13.30;99.90;;;;;;5134004;28;20197;-70
2021/10/03 00:43:37;;;;;;;0.40;0.40;;;13.30;99.90;;;;;;5134244;27;20188;-67
2021/10/03 00:46:03;;;;;;;0.30;0.30;;;13.30;99.90;;;;;;5138109;27;20471;-69
2021/10/03 00:48:29;;;;;;;0.97;0.97;;;13.30;99.90;;;;;;5138269;27;20402;-70
2021/10/03 00:50:54;;;;;;;0.30;0.30;;;13.30;99.90;;;;;;5138117;27;20174;-70
2021/10/03 00:53:20;;;;;;;1.03;1.03;;;13.30;99.90;;;;;;5136931;27;20192;-68
2021/10/03 00:55:46;;;;;;;0.70;0.60;;;13.30;99.90;;;;;;5137543;27;20242;-70
2021/10/03 00:58:11;;;;;;;0.30;0.30;;;13.20;99.90;;;;;;5136273;27;20661;-65
2021/10/03 01:00:39;;;;;;;0.67;0.57;;;13.20;99.90;;;;;;5137058;27;20636;-68
2021/10/03 01:03:07;;;;;;;0.30;0.30;;;13.10;99.90;;;;;;5136629;27;20417;-67
2021/10/03 01:05:32;;;;;;;0.30;0.30;;;13.20;99.90;;;;;;5137155;27;20810;-66
2021/10/03 01:07:59;;;;;;;0.30;0.30;;;13.10;99.90;;;;;;5136989;27;20454;-66
2021/10/03 01:10:26;;;;;;;0.30;0.30;;;13.10;99.90;;;;;;5137012;27;20401;-68
2021/10/03 01:12:57;;;;;;;0.30;0.30;;;13.10;99.90;;;;;;5137420;27;20897;-69
2021/10/03 01:15:24;;;;;;;0.30;0.30;;;13.00;99.90;;;;;;5137501;27;20393;-69
2021/10/03 01:17:49;;;;;;;0.30;0.30;;;13.00;99.90;;;;;;5137271;27;20613;-66
2021/10/03 01:20:15;;;;;;;0.73;0.73;;;13.10;99.90;;;;;;5137451;27;20397;-70
2021/10/03 01:22:41;;;;;;;0.50;0.50;;;13.20;99.90;;;;;;5137525;27;20170;-66
2021/10/03 01:25:09;;;;;;;0.30;0.30;;;13.20;99.90;;;;;;5137152;27;20396;-67
2021/10/03 01:27:37;;;;;;;0.30;0.30;;;13.30;99.90;;;;;;5137723;27;20401;-66
2021/10/03 01:30:05;;;;;;;0.30;0.30;;;13.30;99.90;;;;;;5137412;27;20414;-66
2021/10/03 01:32:31;;;;;;;0.30;0.30;;;13.30;99.90;;;;;;5137302;27;20409;-68
2021/10/03 01:34:57;;;;;;;0.40;0.40;;;13.30;99.90;;;;;;5137088;27;20430;-66
2021/10/03 01:37:24;;;;;;;1.63;1.53;;;13.30;99.90;;;;;;5137077;27;20171;-66
2021/10/03 01:39:51;;;;;;;0.30;0.30;;;13.30;99.90;;;;;;5137425;27;20649;-70
2021/10/03 01:42:16;;;;;;;0.90;0.90;;;13.30;99.90;;;;;;5137047;27;20400;-66
2021/10/03 01:44:42;;;;;;;0.50;0.50;;;13.40;99.90;;;;;;5136777;27;20421;-69
2021/10/03 01:47:08;;;;;;;0.30;0.30;;;13.30;99.90;;;;;;5136917;27;20175;-67
2021/10/03 01:49:34;;;;;;;0.30;0.30;;;13.30;99.90;;;;;;5137159;27;20533;-66
2021/10/03 01:51:59;;;;;;;0.30;0.30;;;13.40;99.90;;;;;;5136983;27;20428;-67
2021/10/03 01:54:25;;;;;;;0.30;0.30;;;13.40;99.90;;;;;;5136880;27;20562;-69
2021/10/03 01:56:51;;;;;;;0.30;0.30;;;13.40;99.90;;;;;;5135986;27;20164;-65
2021/10/03 01:59:17;;;;;;;0.30;0.30;;;13.50;99.90;;;;;;5136704;27;20708;-68
2021/10/03 02:01:44;;;;;;;0.30;0.30;;;13.40;99.90;;;;;;5136781;27;20530;-67
2021/10/03 02:04:22;;;;;;;5.03;1.90;;;13.50;99.90;;;;;;5136442;27;20413;-68
2021/10/03 02:06:50;;;;;;;0.30;0.30;;;13.60;99.90;;;;;;5136736;27;20412;-68
2021/10/03 02:09:19;;;;;;;0.30;0.30;;;13.70;99.90;;;;;;5136535;27;20396;-68
2021/10/03 02:11:47;;;;;;;0.33;0.33;;;13.80;99.90;;;;;;5136557;27;20468;-69
2021/10/03 02:14:15;;;;;;;4.53;1.50;;;13.80;99.90;;;;;;5136172;27;20431;-68
2021/10/03 02:16:40;;;;;;;0.30;0.30;;;13.90;99.90;;;;;;5136562;27;20397;-67
2021/10/03 02:19:07;;;;;;;0.30;0.30;;;13.90;99.90;;;;;;5136332;27;20531;-71
2021/10/03 02:21:33;;;;;;;0.60;0.60;;;14.00;99.90;;;;;;5136490;27;20168;-67
2021/10/03 02:23:59;;;;;;;0.30;0.30;;;14.00;99.90;;;;;;5136128;27;20441;-69
2021/10/03 02:26:25;;;;;;;0.30;0.30;;;13.90;99.90;;;;;;5136414;27;20424;-69
2021/10/03 02:28:51;;;;;;;0.40;0.40;;;13.90;99.90;;;;;;5136268;27;20476;-67
2021/10/03 02:31:17;;;;;;;0.40;0.40;;;13.90;99.90;;;;;;5136214;27;20802;-69
2021/10/03 02:33:46;;;;;;;0.50;0.50;;;13.90;99.90;;;;;;5135730;27;20199;-68
2021/10/03 02:36:13;;;;;;;0.30;0.30;;;13.90;99.90;;;;;;5135956;27;20426;-66
2021/10/03 02:38:40;;;;;;;0.30;0.30;;;14.00;99.90;;;;;;5135788;27;20452;-67
2021/10/03 02:41:07;;;;;;;1.03;1.03;;;14.00;99.90;;;;;;5135923;27;20396;-67
2021/10/03 02:43:35;;;;;;;0.40;0.40;;;14.10;99.90;;;;;;5135571;27;20785;-69
2021/10/03 02:46:02;;;;;;;0.30;0.30;;;14.00;99.90;;;;;;5135834;27;20499;-67
2021/10/03 02:48:30;;;;;;;2.20;2.10;;;14.00;99.90;;;;;;5135947;27;20404;-67
2021/10/03 02:50:56;;;;;;;0.30;0.30;;;14.00;99.90;;;;;;5135681;27;20444;-67
2021/10/03 02:53:23;;;;;;;0.30;0.30;;;14.00;99.90;;;;;;5135452;27;20839;-66
2021/10/03 02:55:50;;;;;;;0.30;0.30;;;14.00;99.90;;;;;;5135576;27;20741;-67
2021/10/03 02:58:16;;;;;;;0.30;0.30;;;14.00;99.90;;;;;;5135605;27;20588;-69
2021/10/03 03:00:44;;;;;;;0.30;0.30;;;13.90;99.90;;;;;;5135662;27;20750;-69
2021/10/03 03:03:10;;;;;;;0.30;0.30;;;13.80;99.90;;;;;;5135203;27;20416;-69
2021/10/03 03:05:37;;;;;;;0.67;0.53;;;13.80;99.90;;;;;;5135352;27;20909;-68
2021/10/03 03:08:02;;;;;;;0.30;0.30;;;13.80;99.90;;;;;;5134491;27;20434;-69
2021/10/03 03:10:29;;;;;;;0.40;0.40;;;13.90;99.90;;;;;;5135456;27;20438;-67
2021/10/03 03:12:55;;;;;;;0.30;0.30;;;13.80;99.90;;;;;;5135319;27;20424;-67
2021/10/03 03:15:20;;;;;;;0.30;0.30;;;13.60;99.90;;;;;;5135151;27;20414;-69
2021/10/03 03:17:46;;;;;;;0.30;0.30;;;13.60;99.90;;;;;;5135107;27;20435;-67
2021/10/03 03:20:12;;;;;;;0.30;0.30;;;13.70;99.90;;;;;;5135055;27;20203;-69
2021/10/03 03:22:38;;;;;;;0.60;0.60;;;13.60;99.90;;;;;;5135012;27;20405;-68
2021/10/03 03:25:06;;;;;;;0.40;0.40;;;13.70;99.90;;;;;;5135060;27;20521;-69
2021/10/03 03:27:32;;;;;;;0.30;0.30;;;13.70;99.90;;;;;;5135075;27;20171;-67
2021/10/03 03:29:58;;;;;;;0.40;0.40;;;13.70;99.90;;;;;;5135064;27;20402;-67
2021/10/03 03:32:23;;;;;;;0.30;0.30;;;13.70;99.90;;;;;;5116474;27;20419;-68
2021/10/03 03:34:49;;;;;;;0.30;0.30;;;13.70;99.90;;;;;;5134697;27;20195;-68
2021/10/03 03:37:15;;;;;;;3.90;0.90;;;13.70;99.90;;;;;;5134924;27;20526;-69
2021/10/03 03:39:40;;;;;;;0.30;0.30;;;13.80;99.90;;;;;;5134865;27;20280;-67
2021/10/03 03:42:06;;;;;;;0.70;0.70;;;13.80;99.90;;;;;;5134969;27;20171;-67
2021/10/03 03:44:32;;;;;;;0.30;0.30;;;13.80;99.90;;;;;;5134484;27;20189;-67
2021/10/03 03:46:59;;;;;;;0.30;0.30;;;13.80;99.90;;;;;;5134585;27;20539;-67
2021/10/03 03:49:25;;;;;;;0.30;0.30;;;13.80;99.90;;;;;;5134892;27;20473;-67
2021/10/03 03:51:51;;;;;;;0.53;0.53;;;13.80;99.90;;;;;;5134723;27;20893;-66
2021/10/03 03:54:16;;;;;;;0.40;0.40;;;13.80;99.90;;;;;;5134489;27;20549;-68
2021/10/03 03:56:42;;;;;;;0.50;0.50;;;13.90;99.90;;;;;;5134704;27;20181;-65
2021/10/03 03:59:08;;;;;;;0.30;0.30;;;13.90;99.90;;;;;;5134547;27;20605;-68
2021/10/03 04:01:33;;;;;;;0.40;0.40;;;13.80;99.90;;;;;;5134507;27;20178;-69
2021/10/03 04:03:59;;;;;;;0.30;0.30;;;13.90;99.90;;;;;;5134288;27;20710;-69
2021/10/03 04:06:25;;;;;;;0.30;0.30;;;13.90;99.90;;;;;;5134524;28;20654;-67
2021/10/03 04:08:51;;;;;;;0.73;0.73;;;13.90;99.90;;;;;;5134648;28;20200;-67
2021/10/03 04:11:18;;;;;;;0.30;0.30;;;13.90;99.90;;;;;;5134338;28;20412;-67
2021/10/03 04:13:43;;;;;;;0.50;0.50;;;13.90;99.90;;;;;;5134096;28;20560;-67
2021/10/03 04:16:10;;;;;;;0.60;0.60;;;13.80;99.90;;;;;;5134363;28;20405;-66
2021/10/03 04:18:36;;;;;;;0.30;0.30;;;13.90;99.90;;;;;;5134673;27;20638;-69
2021/10/03 04:21:02;;;;;;;0.30;0.30;;;13.90;99.90;;;;;;5138689;27;20879;-68
2021/10/03 04:23:27;;;;;;;0.30;0.30;;;13.90;99.90;;;;;;5138446;27;20424;-68
2021/10/03 04:25:53;;;;;;;0.50;0.50;;;13.80;99.90;;;;;;5138691;27;20409;-65
2021/10/03 04:28:19;;;;;;;1.33;1.33;;;13.80;99.90;;;;;;5138609;27;20207;-68
2021/10/03 04:30:44;;;;;;;0.30;0.30;;;13.70;99.90;;;;;;5138412;27;20172;-69
2021/10/03 04:33:10;;;;;;;0.30;0.30;;;13.60;99.90;;;;;;5138249;27;20624;-67
2021/10/03 04:35:36;;;;;;;0.30;0.30;;;13.60;99.90;;;;;;5119982;27;20763;-68
2021/10/03 04:38:02;;;;;;;0.30;0.30;;;13.60;99.90;;;;;;5138208;27;20814;-69
2021/10/03 04:40:27;;;;;;;0.30;0.30;;;13.50;99.90;;;;;;5138242;27;20567;-68
2021/10/03 04:42:53;;;;;;;0.40;0.40;;;13.50;99.90;;;;;;5138282;27;20199;-67
2021/10/03 04:45:18;;;;;;;0.30;0.30;;;13.40;99.90;;;;;;5137847;27;20254;-69
2021/10/03 04:47:46;;;;;;;0.30;0.30;;;13.40;99.90;;;;;;5138050;27;20266;-70
2021/10/03 04:50:13;;;;;;;0.63;0.63;;;13.40;99.90;;;;;;5138406;27;20174;-67
2021/10/03 04:52:39;;;;;;;0.30;0.30;;;13.40;99.90;;;;;;5138108;27;20419;-66
2021/10/03 04:55:10;;;;;;;0.30;0.30;;;13.40;99.90;;;;;;5137775;27;20526;-68
2021/10/03 04:57:36;;;;;;;0.30;0.30;;;13.50;99.90;;;;;;5138062;27;20483;-66
2021/10/03 05:00:03;;;;;;;0.30;0.30;;;13.60;99.90;;;;;;5138024;27;20593;-67
2021/10/03 05:02:29;;;;;;;0.30;0.30;;;13.60;99.90;;;;;;5138180;27;20430;-67
2021/10/03 05:04:55;;;;;;;0.30;0.30;;;13.70;99.90;;;;;;5137598;27;20507;-67
2021/10/03 05:07:20;;;;;;;0.30;0.30;;;13.70;99.90;;;;;;5137894;27;20168;-66
2021/10/03 05:09:46;;;;;;;0.40;0.40;;;13.60;99.90;;;;;;5138343;27;20184;-66
2021/10/03 05:12:11;;;;;;;0.40;0.40;;;13.60;99.90;;;;;;5137516;27;20186;-69
2021/10/03 05:14:37;;;;;;;0.30;0.30;;;13.50;99.90;;;;;;5137443;27;20240;-68
2021/10/03 05:17:03;;;;;;;0.30;0.30;;;13.50;99.90;;;;;;5137555;27;20179;-67
2021/10/03 05:19:29;;;;;;;0.30;0.30;;;13.40;99.90;;;;;;5137690;27;20555;-68
2021/10/03 05:21:54;;;;;;;0.47;0.47;;;13.40;99.90;;;;;;5137349;27;20426;-69
2021/10/03 05:24:20;;;;;;;0.30;0.30;;;13.40;99.90;;;;;;5137079;27;20614;-68
2021/10/03 05:26:46;;;;;;;0.30;0.30;;;13.50;99.90;;;;;;5137480;27;20173;-65
2021/10/03 05:29:11;;;;;;;0.30;0.30;;;13.60;99.90;;;;;;5137278;27;20167;-67
2021/10/03 05:31:37;;;;;;;0.30;0.30;;;13.60;99.90;;;;;;5135940;27;20694;-68
2021/10/03 05:34:02;;;;;;;0.30;0.30;;;13.60;99.90;;;;;;5136959;27;20191;-68
2021/10/03 05:36:28;;;;;;;0.30;0.30;;;13.70;99.90;;;;;;5137249;27;20208;-69
2021/10/03 05:38:56;;;;;;;0.40;0.40;;;13.70;99.90;;;;;;5137261;27;20652;-69
2021/10/03 05:41:23;;;;;;;0.30;0.30;;;13.70;99.90;;;;;;5137213;27;20405;-68
2021/10/03 05:43:49;;;;;;;0.70;0.70;;;13.80;99.90;;;;;;5136636;27;20421;-67
2021/10/03 05:46:15;;;;;;;0.30;0.30;;;13.90;99.90;;;;;;5136836;27;20506;-67
2021/10/03 05:48:41;;;;;;;0.30;0.30;;;13.90;99.90;;;;;;5137068;27;20494;-67
2021/10/03 05:51:07;;;;;;;0.30;0.30;;;13.90;99.90;;;;;;5137145;27;20440;-69
2021/10/03 05:53:34;;;;;;;0.30;0.30;;;14.00;99.90;;;;;;5136678;27;20196;-69
2021/10/03 05:56:00;;;;;;;0.30;0.30;;;14.10;99.90;;;;;;5137016;27;20441;-69
2021/10/03 05:58:26;;;;;;;0.30;0.30;;;14.10;99.90;;;;;;5136898;27;20452;-68
2021/10/03 06:00:52;;;;;;;0.50;0.50;;;14.10;99.90;;;;;;5136752;27;20882;-68
2021/10/03 06:03:17;;;;;;;0.97;0.93;;;14.20;99.90;;;;;;5136552;27;20270;-67
2021/10/03 06:05:43;;;;;;;0.30;0.30;;;14.20;99.90;;;;;;5136571;27;20175;-67
2021/10/03 06:08:10;;;;;;;0.30;0.30;;;14.20;99.90;;;;;;5136744;27;20228;-67
2021/10/03 06:10:36;;;;;;;0.30;0.30;;;14.20;99.90;;;;;;5136722;27;20163;-67
2021/10/03 06:13:04;;;;;;;0.30;0.30;;;14.30;99.90;;;;;;5136831;27;20416;-68
2021/10/03 06:15:34;;;;;;;0.30;0.30;;;14.30;99.90;;;;;;5136361;27;20417;-69
2021/10/03 06:18:00;;;;;;;0.40;0.40;;;14.40;99.90;;;;;;5136549;27;20409;-67
2021/10/03 06:20:25;;;;;;;0.50;0.43;;;14.30;99.90;;;;;;5136471;27;20905;-67
2021/10/03 06:22:52;;;;;;;0.30;0.30;;;14.30;99.90;;;;;;5136367;27;20397;-66
2021/10/03 06:25:18;;;;;;;0.30;0.30;;;14.30;99.90;;;;;;5136064;27;20190;-67
2021/10/03 06:27:43;;;;;;;0.40;0.40;;;14.30;99.90;;;;;;5136220;27;20404;-69
2021/10/03 06:30:10;;;;;;;0.30;0.30;;;14.40;99.90;;;;;;5136222;27;20757;-69
2021/10/03 06:32:36;;;;;;;0.30;0.30;;;14.40;99.90;;;;;;5136221;27;20175;-66
2021/10/03 06:35:03;;;;;;;0.40;0.40;;;14.40;99.90;;;;;;5136018;27;20409;-67
2021/10/03 06:37:28;;;;;;;0.30;0.30;;;14.40;99.90;;;;;;5135913;27;20557;-69
2021/10/03 06:39:55;;;;;;;1.90;0.60;;;14.50;99.90;;;;;;5135868;27;20550;-67
2021/10/03 06:42:20;;;;;;;0.30;0.30;;;14.50;99.90;;;;;;5135634;27;20167;-66
2021/10/03 06:44:46;;;;;;;0.70;0.70;;;14.50;99.90;;;;;;5135726;27;20940;-66
2021/10/03 06:47:11;;;;;;;0.30;0.30;;;14.60;99.90;;;;;;5135793;27;20274;-68
2021/10/03 06:49:42;;;;;;;0.30;0.30;;;14.70;99.90;;;;;;5134761;27;20175;-67
2021/10/03 06:52:09;;;;;;;0.97;0.97;;;14.70;99.90;;;;;;5134244;27;20508;-66
2021/10/03 06:54:35;;;;;;;0.97;0.97;;;14.70;99.90;;;;;;5134730;27;20421;-66
2021/10/03 06:57:00;;;;;;;3.43;0.80;;;14.70;99.90;;;;;;5135806;27;20409;-68
2021/10/03 06:59:26;;;;;;;0.30;0.30;;;14.90;99.90;;;;;;5135643;27;20199;-68
2021/10/03 07:01:53;;;;;;;0.47;0.47;;;15.00;99.90;;;;;;5117123;27;20185;-69
2021/10/03 07:04:20;;;;;;;0.30;0.30;;;15.10;99.90;;;;;;5135323;27;20287;-68
2021/10/03 07:06:45;;;;;;;1.23;1.13;;;15.20;99.90;;;;;;5135485;27;20937;-69
2021/10/03 07:09:11;;;;;;;0.30;0.30;;;15.30;99.90;;;;;;5135554;27;20430;-67
2021/10/03 07:11:37;;;;;;;0.30;0.30;;;15.30;99.90;;;;;;5135540;27;20771;-65
2021/10/03 07:14:02;;;;;;;0.30;0.30;;;15.30;99.90;;;;;;5135034;27;20191;-69
2021/10/03 07:16:28;;;;;;;0.30;0.30;;;15.30;99.90;;;;;;5135357;27;20220;-68
2021/10/03 07:18:53;;;;;;;0.30;0.30;;;15.40;99.90;;;;;;5135049;27;20570;-68
2021/10/03 07:21:19;;;;;;;0.80;0.80;;;15.40;99.90;;;;;;5135183;27;20533;-66
2021/10/03 07:23:45;;;;;;;0.40;0.40;;;15.40;99.90;;;;;;5134988;27;20599;-67
2021/10/03 07:26:11;;;;;;;0.30;0.30;;;15.50;99.90;;;;;;5135129;27;20565;-67
2021/10/03 07:28:38;;;;;;;0.40;0.40;;;15.40;99.90;;;;;;5135082;27;20193;-67
2021/10/03 07:31:05;;;;;;;0.30;0.30;;;15.40;99.90;;;;;;5135151;27;20841;-67
2021/10/03 07:33:31;;;;;;;0.30;0.30;;;15.40;99.90;;;;;;5134843;27;20559;-66
2021/10/03 07:35:58;;;;;;;0.30;0.30;;;15.40;99.90;;;;;;5135357;27;20406;-67
2021/10/03 07:38:23;;;;;;;0.70;0.60;;;15.60;99.90;;;;;;5134761;27;20452;-67
2021/10/03 07:40:49;;;;;;;0.30;0.30;;;15.70;99.90;;;;;;5134850;27;20894;-67
2021/10/03 07:43:15;;;;;;;0.30;0.30;;;15.80;99.90;;;;;;5134606;27;20203;-69
2021/10/03 07:45:41;;;;;;;0.30;0.30;;;15.90;99.90;;;;;;5134793;27;20197;-68
2021/10/03 07:48:07;;;;;;;0.40;0.40;;;16.10;99.90;;;;;;5134995;27;20167;-67
2021/10/03 07:50:33;;;;;;;0.30;0.30;;;16.20;99.90;;;;;;5134606;27;20397;-67
2021/10/03 07:52:59;;;;;;;0.30;0.30;;;16.30;99.90;;;;;;5134309;27;20764;-67
2021/10/03 07:55:28;;;;;;;1.20;1.13;;;16.30;99.90;;;;;;5134069;27;20594;-68
2021/10/03 07:58:03;;;;;;;0.30;0.30;;;16.40;99.90;;;;;;5134683;27;20163;-70
2021/10/03 08:00:34;;;;;;;0.63;0.50;;;16.40;99.90;;;;;;5134852;27;20399;-69
2021/10/03 08:03:00;;;;;;;0.30;0.30;;;16.40;99.90;;;;;;5134649;27;20405;-69
2021/10/03 08:05:27;;;;;;;0.30;0.30;;;16.40;99.90;;;;;;5134366;27;20790;-67
2021/10/03 08:07:53;;;;;;;0.40;0.40;;;16.40;99.90;;;;;;5134683;27;20442;-65
2021/10/03 08:10:19;;;;;;;0.30;0.30;;;16.30;99.90;;;;;;5134430;28;20405;-66
2021/10/03 08:12:47;;;;;;;0.40;0.40;;;16.30;99.90;;;;;;5134662;28;20421;-67
2021/10/03 08:15:13;;;;;;;0.30;0.30;;;16.40;99.90;;;;;;5134412;28;20451;-68
2021/10/03 08:17:39;;;;;;;0.30;0.30;;;16.40;99.90;;;;;;5134789;28;20783;-69
2021/10/03 08:20:06;;;;;;;0.77;0.50;;;16.40;99.90;;;;;;5134437;28;20453;-68
2021/10/03 08:22:31;;;;;;;1.00;1.00;;;16.30;99.90;;;;;;5134463;28;20401;-66
2021/10/03 08:24:57;;;;;;;0.30;0.30;;;16.40;99.90;;;;;;5134185;28;20479;-67
2021/10/03 08:27:23;;;;;;;0.40;0.40;;;16.40;99.90;;;;;;5134424;28;20177;-67
2021/10/03 08:29:54;;;;;;;0.40;0.40;;;16.30;99.90;;;;;;5134224;28;20209;-68
2021/10/03 08:32:20;;;;;;;0.30;0.30;;;16.30;99.90;;;;;;5134516;28;20622;-71
2021/10/03 08:34:51;;;;;;;0.30;0.30;;;16.20;99.90;;;;;;5133879;28;20511;-68
2021/10/03 08:37:16;;;;;;;0.30;0.30;;;16.20;99.90;;;;;;5134147;28;20185;-67
2021/10/03 08:39:44;;;;;;;0.40;0.40;;;16.40;99.90;;;;;;5134233;28;20452;-68
2021/10/03 08:42:10;;;;;;;0.40;0.40;;;16.40;99.90;;;;;;5134323;28;20301;-68
2021/10/03 08:44:35;;;;;;;0.30;0.30;;;16.40;99.90;;;;;;5133746;28;20494;-68
2021/10/03 08:47:01;;;;;;;0.30;0.30;;;16.40;99.90;;;;;;5134093;28;20755;-69
2021/10/03 08:49:27;;;;;;;0.30;0.30;;;16.50;99.90;;;;;;5134318;28;20630;-68
2021/10/03 08:51:52;;;;;;;0.30;0.30;;;16.70;99.90;;;;;;5134149;28;20173;-67
2021/10/03 08:54:18;;;;;;;0.30;0.30;;;16.80;99.90;;;;;;5133842;28;20363;-70
2021/10/03 08:56:49;;;;;;;0.30;0.30;;;16.90;99.90;;;;;;5134060;28;20254;-70
2021/10/03 08:59:15;;;;;;;0.30;0.30;;;17.10;99.90;;;;;;5115479;28;20456;-68
2021/10/03 09:01:55;;;;;;;0.50;0.50;;;17.20;99.90;;;;;;5133377;28;20427;-69
2021/10/03 09:04:39;;;;;;;0.50;0.50;;;17.30;99.90;;;;;;5132625;27;20191;-71
2021/10/03 09:07:05;;;;;;;0.30;0.30;;;17.40;99.90;;;;;;5137505;27;20482;-71
2021/10/03 09:09:49;;;;;;;0.80;0.80;;;17.40;99.90;;;;;;5137877;27;20748;-71
2021/10/03 09:12:40;;;;;;;0.60;0.60;;;17.50;99.90;;;;;;5138073;27;20177;-69
2021/10/03 09:15:18;;;;;;;0.30;0.30;;;17.50;99.90;;;;;;5132783;27;20424;-70
2021/10/03 09:17:55;;;;;;;0.30;0.30;;;17.50;99.90;;;;;;5136394;27;20407;-71
2021/10/03 09:20:24;;;;;;;0.57;0.50;;;17.50;99.90;;;;;;5137757;27;20444;-70
2021/10/03 09:23:14;;;;;;;0.60;0.60;;;17.40;99.90;;;;;;5138050;27;20746;-69
2021/10/03 09:25:52;;;;;;;0.30;0.30;;;17.40;99.90;;;;;;5138672;27;20731;-70
2021/10/03 09:28:20;;;;;;;0.30;0.30;;;17.20;99.90;;;;;;5137538;27;20403;-71
2021/10/03 09:31:04;;;;;;;0.40;0.40;;;17.30;99.90;;;;;;5137462;27;20407;-68
2021/10/03 09:33:52;;;;;;;0.30;0.30;;;17.30;99.90;;;;;;5137247;27;20417;-69
2021/10/03 09:36:24;;;;;;;0.40;0.40;;;17.30;99.90;;;;;;5137673;27;20392;-69
2021/10/03 09:38:49;;;;;;;0.30;0.30;;;17.30;99.90;;;;;;5137540;27;20521;-68
2021/10/03 09:41:21;;;;;;;0.30;0.30;;;17.20;99.90;;;;;;5137095;27;20393;-68
2021/10/03 09:43:48;;;;;;;0.30;0.30;;;17.20;99.90;;;;;;5136926;27;20528;-71
2021/10/03 09:46:47;;;;;;;0.93;0.70;;;17.20;99.90;;;;;;5137154;27;20423;-69
2021/10/03 09:49:17;;;;;;;0.30;0.30;;;17.30;99.90;;;;;;5129007;27;20468;-68
2021/10/03 09:51:49;;;;;;;0.40;0.40;;;17.30;99.90;;;;;;5137365;27;20412;-69
2021/10/03 09:54:16;;;;;;;0.40;0.40;;;17.30;99.90;;;;;;5137506;27;20424;-70
2021/10/03 09:56:44;;;;;;;0.30;0.30;;;17.30;99.90;;;;;;5136925;27;20412;-70
2021/10/03 09:59:10;;;;;;;0.50;0.50;;;17.20;99.90;;;;;;5101386;27;20461;-68
2021/10/03 10:01:45;;;;;;;0.30;0.30;;;17.10;99.90;;;;;;5136860;27;20471;-70
2021/10/03 10:04:13;;;;;;;0.30;0.30;;;17.20;99.90;;;;;;5136553;27;20562;-71
2021/10/03 10:06:39;;;;;;;0.30;0.30;;;17.20;99.90;;;;;;5136668;27;20397;-71
2021/10/03 10:09:08;;;;;;;0.50;0.50;;;17.10;99.90;;;;;;5135507;27;20397;-68
2021/10/03 10:11:49;;;;;;;0.60;0.60;;;17.10;99.90;;;;;;5135280;27;20728;-69
2021/10/03 10:14:16;;;;;;;0.30;0.30;;;17.10;99.90;;;;;;5135674;27;20424;-70
2021/10/03 10:16:49;;;;;;;0.30;0.30;;;17.20;99.90;;;;;;5135713;27;20412;-67
2021/10/03 10:19:42;;;;;;;0.40;0.40;;;17.20;99.90;;;;;;5136325;27;20779;-70
2021/10/03 10:22:14;;;;;;;0.50;0.50;;;17.30;99.90;;;;;;5132455;27;20412;-69
2021/10/03 10:24:47;;;;;;;0.40;0.40;;;17.50;99.90;;;;;;5135991;27;20423;-69
2021/10/03 10:27:19;;;;;;;0.30;0.30;;;17.50;99.90;;;;;;5136230;27;20446;-68
2021/10/03 10:29:59;;;;;;;0.40;0.40;;;17.60;99.90;;;;;;5136216;27;20412;-68
2021/10/03 10:32:29;;;;;;;0.30;0.30;;;17.60;99.90;;;;;;5136342;27;20446;-71
2021/10/03 10:35:09;;;;;;;0.30;0.30;;;17.70;99.90;;;;;;5135726;27;20453;-71
2021/10/03 10:37:56;;;;;;;0.30;0.30;;;17.80;99.90;;;;;;5136042;27;20913;-71
2021/10/03 10:40:22;;;;;;;0.30;0.30;;;17.80;99.90;;;;;;5135828;27;21015;-68
2021/10/03 10:43:03;;;;;;;0.30;0.30;;;17.90;99.90;;;;;;5136002;27;20401;-70
2021/10/03 10:45:29;;;;;;;0.67;0.67;;;17.80;99.90;;;;;;5135900;27;20167;-68
2021/10/03 10:48:10;;;;;;;0.60;0.60;;;17.70;99.90;;;;;;5135725;27;20424;-70
2021/10/03 10:50:39;;;;;;;0.30;0.30;;;17.70;99.90;;;;;;5135869;27;20389;-70
2021/10/03 10:53:22;;;;;;;0.30;0.30;;;17.60;99.90;;;;;;5135756;27;20788;-68
2021/10/03 10:56:04;;;;;;;0.30;0.30;;;17.50;99.90;;;;;;5135859;27;20386;-67
2021/10/03 10:58:31;;;;;;;0.50;0.50;;;17.10;99.90;;;;;;5117211;27;20450;-70
2021/10/03 11:01:00;;;;;;;0.30;0.30;;;17.20;99.90;;;;;;5135773;27;20403;-69
2021/10/03 11:03:44;;;;;;;0.50;0.50;;;17.10;99.90;;;;;;5135377;27;20790;-68
2021/10/03 11:06:34;;;;;;;0.30;0.30;;;17.10;99.90;;;;;;5135592;27;20403;-70
2021/10/03 11:09:09;;;;;;;0.30;0.30;;;17.10;99.90;;;;;;5135225;27;20405;-69
2021/10/03 11:11:34;;;;;;;0.67;0.67;;;17.10;99.90;;;;;;5135429;27;20404;-66
2021/10/03 11:14:22;;;;;;;0.30;0.30;;;17.10;99.90;;;;;;5135208;27;20768;-69
2021/10/03 11:16:50;;;;;;;0.30;0.30;;;17.10;99.90;;;;;;5135761;27;20169;-69
2021/10/03 11:19:21;;;;;;;0.30;0.30;;;17.10;99.90;;;;;;5135378;27;20552;-68
2021/10/03 11:21:51;;;;;;;0.77;0.77;;;17.00;99.90;;;;;;5135295;27;20882;-68
2021/10/03 11:24:19;;;;;;;0.30;0.30;;;16.90;99.90;;;;;;5135025;27;20428;-70
2021/10/03 11:26:49;;;;;;;0.50;0.50;;;16.90;99.90;;;;;;5135365;27;20399;-68
2021/10/03 11:29:16;;;;;;;0.30;0.30;;;16.80;99.90;;;;;;5134315;27;20404;-68
2021/10/03 11:31:48;;;;;;;0.30;0.30;;;16.70;99.90;;;;;;5134942;27;20412;-69
2021/10/03 11:34:37;;;;;;;0.40;0.40;;;16.70;99.90;;;;;;5134730;27;20800;-69
2021/10/03 11:37:02;;;;;;;0.30;0.30;;;16.80;99.90;;;;;;5135127;27;20396;-68
2021/10/03 11:39:50;;;;;;;0.30;0.30;;;16.90;99.90;;;;;;5134960;27;20526;-69
2021/10/03 11:42:29;;;;;;;0.30;0.30;;;16.90;99.90;;;;;;5134921;27;20170;-68
2021/10/03 11:45:01;;;;;;;0.37;0.37;;;17.00;99.90;;;;;;5134657;27;20438;-70
2021/10/03 11:47:40;;;;;;;0.30;0.30;;;17.10;99.90;;;;;;5134835;27;20421;-69
2021/10/03 11:50:07;;;;;;;0.30;0.30;;;17.20;99.90;;;;;;5134887;27;20408;-70
2021/10/03 11:52:36;;;;;;;0.30;0.30;;;17.30;99.90;;;;;;5135091;27;20479;-68
2021/10/03 11:55:06;;;;;;;0.30;0.30;;;17.40;99.90;;;;;;5134427;27;20420;-69
2021/10/03 11:57:37;;;;;;;0.40;0.40;;;17.40;99.90;;;;;;5134967;27;20470;-67
2021/10/03 12:00:09;;;;;;;0.40;0.40;;;17.50;99.90;;;;;;5134487;27;20456;-68
2021/10/03 12:02:42;;;;;;;0.30;0.30;;;17.40;99.90;;;;;;5134674;27;20399;-68
2021/10/03 12:05:10;;;;;;;0.87;0.60;;;17.40;99.90;;;;;;5134407;27;20416;-68
2021/10/03 12:07:36;;;;;;;0.30;0.30;;;17.50;99.90;;;;;;5134775;27;20800;-70
2021/10/03 12:10:09;;;;;;;0.30;0.30;;;17.50;99.90;;;;;;5134639;28;20484;-70
2021/10/03 12:12:56;;;;;;;0.40;0.40;;;17.40;99.90;;;;;;5134672;28;20401;-70
2021/10/03 12:15:37;;;;;;;0.50;0.50;;;17.50;99.90;;;;;;5134271;28;20403;-68
2021/10/03 12:18:03;;;;;;;0.30;0.30;;;17.30;99.90;;;;;;5134431;28;20415;-69
2021/10/03 12:20:56;;;;;;;0.30;0.30;;;17.30;99.90;;;;;;5134427;28;20476;-69
2021/10/03 12:23:38;;;;;;;0.30;0.30;;;17.40;99.90;;;;;;5115286;28;20425;-70
2021/10/03 12:26:12;;;;;;;0.30;0.30;;;17.20;99.90;;;;;;5134389;28;21012;-71
2021/10/03 12:28:55;;;;;;;0.30;0.30;;;17.10;99.90;;;;;;5133146;28;20404;-70
2021/10/03 12:32:00;;;;;;;0.30;0.30;;;17.00;99.90;;;;;;5134205;28;20411;-70
2021/10/03 12:34:30;;;;;;;0.30;0.30;;;17.10;99.90;;;;;;5132916;28;20767;-69
2021/10/03 12:36:58;;;;;;;0.30;0.30;;;17.00;99.90;;;;;;5134462;28;20800;-68
2021/10/03 12:39:25;;;;;;;0.30;0.30;;;17.00;99.90;;;;;;5115897;27;20456;-70
2021/10/03 12:41:55;;;;;;;0.70;0.50;;;17.20;99.90;;;;;;5138477;27;20404;-67
2021/10/03 12:44:26;;;;;;;1.93;1.83;;;17.40;99.90;;;;;;5137432;27;20773;-69
2021/10/03 12:46:52;;;;;;;0.40;0.40;;;17.40;99.90;;;;;;5138425;27;20448;-71
2021/10/03 12:49:18;;;;;;;0.30;0.30;;;17.50;99.90;;;;;;5138358;27;20401;-67
2021/10/03 12:51:44;;;;;;;0.40;0.40;;;17.60;99.90;;;;;;5138300;27;20403;-71
2021/10/03 12:54:09;;;;;;;0.30;0.30;;;17.80;99.90;;;;;;5137854;27;20267;-70
2021/10/03 12:56:36;;;;;;;0.60;0.60;;;17.90;99.90;;;;;;5138105;27;20163;-70